createdAt,value
2018-10-16T21:16:16.815Z,22.77
2018-10-16T21:18:44.364Z,22.40
2018-10-16T21:21:12.867Z,22.13
2018-10-16T21:23:40.460Z,22.10
2018-10-16T21:26:08.004Z,23.47
2018-10-16T21:28:35.684Z,25.43
2018-10-16T21:31:03.425Z,22.37
2018-10-16T21:33:31.332Z,21.70
2018-10-16T21:35:58.900Z,22.23
2018-10-16T21:38:26.469Z,24.63
2018-10-16T21:40:54.157Z,22.13
2018-10-16T21:43:21.777Z,23.43
2018-10-16T21:45:49.504Z,25.17
2018-10-16T21:48:17.234Z,24.23
2018-10-16T21:50:44.948Z,22.50
2018-10-16T21:53:12.705Z,24.27
2018-10-16T21:55:40.213Z,24.60
2018-10-16T21:58:08.072Z,24.47
2018-10-16T22:00:41.298Z,24.47
2018-10-16T22:03:08.900Z,22.90
2018-10-16T22:05:36.608Z,22.00
2018-10-16T22:08:04.576Z,21.87
2018-10-16T22:10:32.471Z,23.40
2018-10-16T22:13:00.322Z,21.57
2018-10-16T22:15:28.152Z,22.57
2018-10-16T22:17:56.569Z,22.07
2018-10-16T22:20:24.595Z,24.47
2018-10-16T22:22:52.387Z,24.13
2018-10-16T22:25:20.297Z,25.10
2018-10-16T22:27:48.007Z,24.00
2018-10-16T22:32:55.521Z,23.33
2018-10-16T22:35:23.662Z,22.83
2018-10-16T22:37:52.841Z,24.27
2018-10-16T22:40:21.300Z,24.30
2018-10-16T22:42:50.044Z,25.83
2018-10-16T22:48:01.112Z,23.03
2018-10-16T22:50:28.865Z,24.70
2018-10-16T22:52:56.548Z,24.03
2018-10-16T22:55:24.564Z,22.93
2018-10-16T22:57:52.221Z,24.57
2018-10-16T23:00:20.688Z,23.27
2018-10-16T23:02:48.603Z,22.80
2018-10-16T23:05:18.407Z,23.77
2018-10-16T23:07:50.656Z,25.37
2018-10-16T23:10:19.329Z,23.13
2018-10-16T23:12:51.742Z,24.50
2018-10-16T23:15:20.516Z,22.10
2018-10-16T23:17:48.341Z,23.60
2018-10-16T23:20:16.276Z,24.00
2018-10-16T23:22:44.824Z,26.83
2018-10-16T23:25:12.761Z,26.60
2018-10-16T23:27:41.579Z,24.97
2018-10-16T23:30:09.448Z,28.73
2018-10-16T23:32:37.550Z,27.63
2018-10-16T23:35:12.682Z,27.00
2018-10-16T23:37:43.746Z,27.97
2018-10-16T23:40:11.364Z,25.63
2018-10-16T23:42:39.267Z,25.67
2018-10-16T23:45:07.012Z,25.20
2018-10-16T23:47:34.639Z,26.00
2018-10-16T23:50:02.646Z,27.73
2018-10-16T23:52:31.420Z,29.17
2018-10-16T23:54:59.375Z,27.53
2018-10-16T23:57:27.522Z,29.67
2018-10-16T23:59:55.426Z,27.60
